sensor_id;sensor_type;location;lat;lon;timestamp;P1;P2;P0
13030;PMS7003;6582;54.644;9.760;2023-07-13T00:00:02;66.3;54.7;
13030;PMS7003;6582;54.644;9.760;2023-07-13T00:05:07;66.4;54.6;
13030;PMS7003;6582;54.644;9.760;2023-07-13T00:10:02;66.1;54.4;
13030;PMS7003;6582;54.644;9.760;2023-07-13T00:15:06;65.8;54.0;
13030;PMS7003;6582;54.644;9.760;2023-07-13T00:20:02;65.6;54.0;
13030;PMS7003;6582;54.644;9.760;2023-07-13T00:25:02;65.9;54.1;
13030;PMS7003;6582;54.644;9.760;2023-07-13T00:30:02;65.9;54.2;
13030;PMS7003;6582;54.644;9.760;2023-07-13T00:35:02;71.5;59.0;
13030;PMS7003;6582;54.644;9.760;2023-07-13T00:40:03;71.7;59.2;
13030;PMS7003;6582;54.644;9.760;2023-07-13T01:00:03;66.0;55.0;
13030;PMS7003;6582;54.644;9.760;2023-07-13T01:05:01;67.6;55.5;
13030;PMS7003;6582;54.644;9.760;2023-07-13T01:10:02;66.7;55.1;
13030;PMS7003;6582;54.644;9.760;2023-07-13T01:15:01;66.9;55.2;
13030;PMS7003;6582;54.644;9.760;2023-07-13T01:25:01;66.8;55.1;
13030;PMS7003;6582;54.644;9.760;2023-07-13T01:30:02;66.1;54.6;
13030;PMS7003;6582;54.644;9.760;2023-07-13T01:40:06;66.0;54.4;
13030;PMS7003;6582;54.644;9.760;2023-07-13T01:45:01;65.6;54.2;
13030;PMS7003;6582;54.644;9.760;2023-07-13T01:50:01;65.8;54.2;
13030;PMS7003;6582;54.644;9.760;2023-07-13T01:55:01;66.2;54.7;
13030;PMS7003;6582;54.644;9.760;2023-07-13T02:00:03;66.4;54.8;
13030;PMS7003;6582;54.644;9.760;2023-07-13T02:05:02;66.2;54.6;
13030;PMS7003;6582;54.644;9.760;2023-07-13T02:10:02;66.4;54.7;
13030;PMS7003;6582;54.644;9.760;2023-07-13T02:15:02;66.2;54.7;
13030;PMS7003;6582;54.644;9.760;2023-07-13T02:25:01;66.5;54.5;
13030;PMS7003;6582;54.644;9.760;2023-07-13T02:30:06;66.6;54.7;
13030;PMS7003;6582;54.644;9.760;2023-07-13T02:35:01;66.2;54.3;
13030;PMS7003;6582;54.644;9.760;2023-07-13T02:40:01;66.3;54.3;
13030;PMS7003;6582;54.644;9.760;2023-07-13T02:45:02;66.2;54.0;
13030;PMS7003;6582;54.644;9.760;2023-07-13T02:50:01;66.0;54.3;
13030;PMS7003;6582;54.644;9.760;2023-07-13T02:55:01;66.2;54.6;
13030;PMS7003;6582;54.644;9.760;2023-07-13T03:00:02;67.8;55.8;
13030;PMS7003;6582;54.644;9.760;2023-07-13T03:05:02;68.4;56.3;
13030;PMS7003;6582;54.644;9.760;2023-07-13T03:10:01;68.3;56.3;
13030;PMS7003;6582;54.644;9.760;2023-07-13T03:15:01;73.4;60.4;
13030;PMS7003;6582;54.644;9.760;2023-07-13T03:20:01;73.7;60.4;
13030;PMS7003;6582;54.644;9.760;2023-07-13T03:25:06;72.4;59.6;
13030;PMS7003;6582;54.644;9.760;2023-07-13T03:30:02;71.6;58.9;
13030;PMS7003;6582;54.644;9.760;2023-07-13T03:35:01;71.5;58.9;
13030;PMS7003;6582;54.644;9.760;2023-07-13T03:40:01;66.3;54.6;
13030;PMS7003;6582;54.644;9.760;2023-07-13T03:45:03;66.3;54.6;
13030;PMS7003;6582;54.644;9.760;2023-07-13T03:50:07;66.5;54.6;
13030;PMS7003;6582;54.644;9.760;2023-07-13T03:55:02;66.8;54.7;
13030;PMS7003;6582;54.644;9.760;2023-07-13T04:00:01;66.2;54.2;
13030;PMS7003;6582;54.644;9.760;2023-07-13T04:05:01;66.0;54.0;
13030;PMS7003;6582;54.644;9.760;2023-07-13T04:10:06;65.2;53.6;
13030;PMS7003;6582;54.644;9.760;2023-07-13T04:15:01;65.0;53.6;
13030;PMS7003;6582;54.644;9.760;2023-07-13T04:20:02;65.4;53.8;
13030;PMS7003;6582;54.644;9.760;2023-07-13T04:25:01;66.3;54.6;
13030;PMS7003;6582;54.644;9.760;2023-07-13T04:30:01;67.0;55.0;
13030;PMS7003;6582;54.644;9.760;2023-07-13T04:35:01;66.9;54.9;
13030;PMS7003;6582;54.644;9.760;2023-07-13T04:40:01;66.3;54.4;
13030;PMS7003;6582;54.644;9.760;2023-07-13T04:45:01;65.4;53.8;
13030;PMS7003;6582;54.644;9.760;2023-07-13T04:50:01;64.2;52.9;
13030;PMS7003;6582;54.644;9.760;2023-07-13T04:55:01;62.0;51.4;
13030;PMS7003;6582;54.644;9.760;2023-07-13T05:00:01;60.1;50.0;
13030;PMS7003;6582;54.644;9.760;2023-07-13T05:05:01;60.5;50.1;
13030;PMS7003;6582;54.644;9.760;2023-07-13T05:10:02;61.1;50.7;
13030;PMS7003;6582;54.644;9.760;2023-07-13T05:15:01;61.0;50.6;
13030;PMS7003;6582;54.644;9.760;2023-07-13T05:20:02;62.2;51.6;
13030;PMS7003;6582;54.644;9.760;2023-07-13T05:25:04;64.3;53.1;
13030;PMS7003;6582;54.644;9.760;2023-07-13T05:30:02;64.0;53.2;
13030;PMS7003;6582;54.644;9.760;2023-07-13T05:35:01;63.3;52.6;
13030;PMS7003;6582;54.644;9.760;2023-07-13T05:40:01;64.0;53.1;
13030;PMS7003;6582;54.644;9.760;2023-07-13T05:45:02;62.8;52.2;
13030;PMS7003;6582;54.644;9.760;2023-07-13T05:50:06;61.2;51.0;
13030;PMS7003;6582;54.644;9.760;2023-07-13T06:00:02;60.3;50.4;
13030;PMS7003;6582;54.644;9.760;2023-07-13T06:05:02;58.5;49.0;
13030;PMS7003;6582;54.644;9.760;2023-07-13T06:10:01;58.3;48.8;
13030;PMS7003;6582;54.644;9.760;2023-07-13T06:15:01;57.9;48.7;
13030;PMS7003;6582;54.644;9.760;2023-07-13T06:20:01;55.8;47.3;
13030;PMS7003;6582;54.644;9.760;2023-07-13T06:25:02;55.1;46.8;
13030;PMS7003;6582;54.644;9.760;2023-07-13T06:30:06;55.2;47.0;
13030;PMS7003;6582;54.644;9.760;2023-07-13T06:35:02;55.9;47.4;
13030;PMS7003;6582;54.644;9.760;2023-07-13T06:40:01;64.3;54.4;
13030;PMS7003;6582;54.644;9.760;2023-07-13T06:45:01;63.8;54.0;
13030;PMS7003;6582;54.644;9.760;2023-07-13T06:50:01;63.5;53.6;
13030;PMS7003;6582;54.644;9.760;2023-07-13T06:55:01;63.7;53.5;
13030;PMS7003;6582;54.644;9.760;2023-07-13T07:00:01;63.2;53.3;
13030;PMS7003;6582;54.644;9.760;2023-07-13T07:05:01;55.6;46.7;
13030;PMS7003;6582;54.644;9.760;2023-07-13T07:10:01;57.2;47.8;
13030;PMS7003;6582;54.644;9.760;2023-07-13T07:15:01;58.4;49.0;
13030;PMS7003;6582;54.644;9.760;2023-07-13T07:20:02;58.5;49.2;
13030;PMS7003;6582;54.644;9.760;2023-07-13T07:25:02;57.9;48.8;
13030;PMS7003;6582;54.644;9.760;2023-07-13T07:30:04;56.9;47.9;
13030;PMS7003;6582;54.644;9.760;2023-07-13T07:35:01;55.6;46.7;
13030;PMS7003;6582;54.644;9.760;2023-07-13T07:40:04;54.4;45.6;
13030;PMS7003;6582;54.644;9.760;2023-07-13T07:45:02;54.0;45.2;
13030;PMS7003;6582;54.644;9.760;2023-07-13T07:50:01;53.8;45.1;
13030;PMS7003;6582;54.644;9.760;2023-07-13T07:55:05;54.2;45.4;
13030;PMS7003;6582;54.644;9.760;2023-07-13T08:00:04;54.5;45.9;
13030;PMS7003;6582;54.644;9.760;2023-07-13T08:05:04;54.4;46.1;
13030;PMS7003;6582;54.644;9.760;2023-07-13T08:10:02;54.1;45.9;
13030;PMS7003;6582;54.644;9.760;2023-07-13T08:15:09;54.3;45.8;
13030;PMS7003;6582;54.644;9.760;2023-07-13T08:20:02;54.0;45.6;
13030;PMS7003;6582;54.644;9.760;2023-07-13T08:25:01;53.2;45.0;
13030;PMS7003;6582;54.644;9.760;2023-07-13T08:30:07;52.1;44.2;
13030;PMS7003;6582;54.644;9.760;2023-07-13T08:35:05;53.1;44.8;
13030;PMS7003;6582;54.644;9.760;2023-07-13T08:40:07;52.8;44.7;
13030;PMS7003;6582;54.644;9.760;2023-07-13T08:45:08;52.8;44.7;
13030;PMS7003;6582;54.644;9.760;2023-07-13T08:50:02;54.4;45.7;
13030;PMS7003;6582;54.644;9.760;2023-07-13T08:55:12;56.1;46.9;
13030;PMS7003;6582;54.644;9.760;2023-07-13T09:00:01;55.2;46.4;
13030;PMS7003;6582;54.644;9.760;2023-07-13T09:05:12;55.5;46.6;
13030;PMS7003;6582;54.644;9.760;2023-07-13T09:10:11;56.3;47.2;
13030;PMS7003;6582;54.644;9.760;2023-07-13T09:15:02;55.1;46.4;
13030;PMS7003;6582;54.644;9.760;2023-07-13T09:20:10;62.2;52.2;
13030;PMS7003;6582;54.644;9.760;2023-07-13T09:25:06;61.8;51.8;
13030;PMS7003;6582;54.644;9.760;2023-07-13T09:50:06;56.6;47.6;
13030;PMS7003;6582;54.644;9.760;2023-07-13T09:55:02;60.0;50.0;
13030;PMS7003;6582;54.644;9.760;2023-07-13T10:00:02;60.9;50.7;
13030;PMS7003;6582;54.644;9.760;2023-07-13T10:05:03;60.1;50.1;
13030;PMS7003;6582;54.644;9.760;2023-07-13T10:10:03;60.3;50.2;
13030;PMS7003;6582;54.644;9.760;2023-07-13T10:15:20;60.9;50.4;
13030;PMS7003;6582;54.644;9.760;2023-07-13T10:20:04;60.3;49.9;
13030;PMS7003;6582;54.644;9.760;2023-07-13T10:25:02;58.8;48.8;
13030;PMS7003;6582;54.644;9.760;2023-07-13T10:30:21;58.2;48.3;
13030;PMS7003;6582;54.644;9.760;2023-07-13T10:35:02;56.6;47.2;
13030;PMS7003;6582;54.644;9.760;2023-07-13T10:40:02;56.0;47.0;
13030;PMS7003;6582;54.644;9.760;2023-07-13T10:45:02;54.9;46.4;
13030;PMS7003;6582;54.644;9.760;2023-07-13T10:50:02;54.3;46.0;
13030;PMS7003;6582;54.644;9.760;2023-07-13T11:40:02;56.2;47.2;
13030;PMS7003;6582;54.644;9.760;2023-07-13T11:45:18;58.6;48.6;
13030;PMS7003;6582;54.644;9.760;2023-07-13T11:50:02;60.3;50.3;
13030;PMS7003;6582;54.644;9.760;2023-07-13T11:55:03;61.1;50.8;
13030;PMS7003;6582;54.644;9.760;2023-07-13T12:00:11;62.6;52.4;
13030;PMS7003;6582;54.644;9.760;2023-07-13T12:05:02;64.0;53.4;
13030;PMS7003;6582;54.644;9.760;2023-07-13T12:10:03;64.4;53.8;
13030;PMS7003;6582;54.644;9.760;2023-07-13T12:15:05;64.0;53.3;
13030;PMS7003;6582;54.644;9.760;2023-07-13T12:20:03;63.7;53.0;
13030;PMS7003;6582;54.644;9.760;2023-07-13T12:25:03;63.0;52.4;
13030;PMS7003;6582;54.644;9.760;2023-07-13T12:30:03;63.4;53.0;
13030;PMS7003;6582;54.644;9.760;2023-07-13T12:40:02;64.6;54.2;
13030;PMS7003;6582;54.644;9.760;2023-07-13T12:45:05;70.9;60.1;
13030;PMS7003;6582;54.644;9.760;2023-07-13T12:50:03;70.4;59.3;
13030;PMS7003;6582;54.644;9.760;2023-07-13T12:55:11;69.9;58.5;
13030;PMS7003;6582;54.644;9.760;2023-07-13T13:00:02;70.6;59.6;
13030;PMS7003;6582;54.644;9.760;2023-07-13T13:05:02;70.5;59.4;
13030;PMS7003;6582;54.644;9.760;2023-07-13T13:10:04;64.9;54.4;
13030;PMS7003;6582;54.644;9.760;2023-07-13T13:15:02;64.9;54.4;
13030;PMS7003;6582;54.644;9.760;2023-07-13T13:25:09;65.0;54.5;
13030;PMS7003;6582;54.644;9.760;2023-07-13T13:30:02;63.4;52.9;
13030;PMS7003;6582;54.644;9.760;2023-07-13T13:35:12;62.4;51.9;
13030;PMS7003;6582;54.644;9.760;2023-07-13T13:40:18;62.1;51.8;
13030;PMS7003;6582;54.644;9.760;2023-07-13T13:45:02;61.3;51.2;
13030;PMS7003;6582;54.644;9.760;2023-07-13T14:10:02;53.0;45.0;
13030;PMS7003;6582;54.644;9.760;2023-07-13T14:15:01;54.1;45.6;
13030;PMS7003;6582;54.644;9.760;2023-07-13T14:20:01;53.3;45.1;
13030;PMS7003;6582;54.644;9.760;2023-07-13T14:25:08;52.1;44.3;
13030;PMS7003;6582;54.644;9.760;2023-07-13T14:30:01;52.2;44.3;
13030;PMS7003;6582;54.644;9.760;2023-07-13T14:35:01;52.0;44.3;
13030;PMS7003;6582;54.644;9.760;2023-07-13T14:40:01;53.2;45.2;
13030;PMS7003;6582;54.644;9.760;2023-07-13T14:45:01;54.5;46.2;
13030;PMS7003;6582;54.644;9.760;2023-07-13T14:50:01;56.6;47.6;
13030;PMS7003;6582;54.644;9.760;2023-07-13T14:55:03;58.8;49.2;
13030;PMS7003;6582;54.644;9.760;2023-07-13T15:00:01;60.7;50.4;
13030;PMS7003;6582;54.644;9.760;2023-07-13T15:10:01;63.2;53.2;
13030;PMS7003;6582;54.644;9.760;2023-07-13T15:15:01;64.8;54.7;
13030;PMS7003;6582;54.644;9.760;2023-07-13T15:20:04;66.3;57.0;
13030;PMS7003;6582;54.644;9.760;2023-07-13T15:25:11;72.0;61.9;
13030;PMS7003;6582;54.644;9.760;2023-07-13T15:30:02;73.0;62.9;
13030;PMS7003;6582;54.644;9.760;2023-07-13T15:35:01;71.4;60.6;
13030;PMS7003;6582;54.644;9.760;2023-07-13T15:40:02;72.0;61.4;
13030;PMS7003;6582;54.644;9.760;2023-07-13T15:45:02;70.6;59.3;
13030;PMS7003;6582;54.644;9.760;2023-07-13T15:50:01;64.0;53.8;
13030;PMS7003;6582;54.644;9.760;2023-07-13T15:55:01;62.7;52.6;
13030;PMS7003;6582;54.644;9.760;2023-07-13T16:00:02;60.9;51.2;
13030;PMS7003;6582;54.644;9.760;2023-07-13T16:05:01;59.0;49.1;
13030;PMS7003;6582;54.644;9.760;2023-07-13T16:10:01;59.2;49.4;
13030;PMS7003;6582;54.644;9.760;2023-07-13T16:15:12;59.6;49.6;
13030;PMS7003;6582;54.644;9.760;2023-07-13T16:20:01;60.4;50.1;
13030;PMS7003;6582;54.644;9.760;2023-07-13T16:25:01;62.3;51.5;
13030;PMS7003;6582;54.644;9.760;2023-07-13T16:30:09;64.0;53.3;
13030;PMS7003;6582;54.644;9.760;2023-07-13T16:35:01;64.5;54.3;
13030;PMS7003;6582;54.644;9.760;2023-07-13T16:40:05;66.3;56.2;
13030;PMS7003;6582;54.644;9.760;2023-07-13T16:45:01;65.5;55.8;
13030;PMS7003;6582;54.644;9.760;2023-07-13T16:50:13;64.4;54.9;
13030;PMS7003;6582;54.644;9.760;2023-07-13T16:55:01;62.7;53.1;
13030;PMS7003;6582;54.644;9.760;2023-07-13T17:00:04;61.3;51.4;
13030;PMS7003;6582;54.644;9.760;2023-07-13T17:05:02;59.9;49.8;
13030;PMS7003;6582;54.644;9.760;2023-07-13T17:10:02;60.5;50.3;
13030;PMS7003;6582;54.644;9.760;2023-07-13T17:15:02;61.2;50.9;
13030;PMS7003;6582;54.644;9.760;2023-07-13T17:20:05;62.0;51.2;
13030;PMS7003;6582;54.644;9.760;2023-07-13T17:25:04;62.9;51.8;
13030;PMS7003;6582;54.644;9.760;2023-07-13T17:30:01;62.3;51.3;
13030;PMS7003;6582;54.644;9.760;2023-07-13T17:35:01;61.3;50.5;
13030;PMS7003;6582;54.644;9.760;2023-07-13T17:40:03;60.6;50.0;
13030;PMS7003;6582;54.644;9.760;2023-07-13T17:45:03;60.1;49.7;
13030;PMS7003;6582;54.644;9.760;2023-07-13T17:50:08;59.4;49.1;
13030;PMS7003;6582;54.644;9.760;2023-07-13T17:55:01;60.6;50.0;
13030;PMS7003;6582;54.644;9.760;2023-07-13T18:00:06;61.9;51.0;
13030;PMS7003;6582;54.644;9.760;2023-07-13T18:05:08;65.1;53.6;
13030;PMS7003;6582;54.644;9.760;2023-07-13T18:10:01;66.1;54.4;
13030;PMS7003;6582;54.644;9.760;2023-07-13T18:15:01;66.5;54.8;
13030;PMS7003;6582;54.644;9.760;2023-07-13T18:20:08;66.0;54.4;
13030;PMS7003;6582;54.644;9.760;2023-07-13T18:25:05;65.7;54.1;
13030;PMS7003;6582;54.644;9.760;2023-07-13T18:30:01;63.6;52.4;
13030;PMS7003;6582;54.644;9.760;2023-07-13T18:35:01;63.1;52.1;
13030;PMS7003;6582;54.644;9.760;2023-07-13T18:40:01;63.0;52.0;
13030;PMS7003;6582;54.644;9.760;2023-07-13T18:45:01;63.2;52.2;
13030;PMS7003;6582;54.644;9.760;2023-07-13T18:50:05;63.5;52.4;
13030;PMS7003;6582;54.644;9.760;2023-07-13T19:00:01;63.9;52.4;
13030;PMS7003;6582;54.644;9.760;2023-07-13T19:05:01;64.4;52.8;
13030;PMS7003;6582;54.644;9.760;2023-07-13T19:10:01;63.8;52.4;
13030;PMS7003;6582;54.644;9.760;2023-07-13T19:15:34;64.2;52.8;
13030;PMS7003;6582;54.644;9.760;2023-07-13T19:30:10;64.0;52.4;
13030;PMS7003;6582;54.644;9.760;2023-07-13T19:35:01;63.3;51.8;
13030;PMS7003;6582;54.644;9.760;2023-07-13T19:40:03;63.2;51.9;
13030;PMS7003;6582;54.644;9.760;2023-07-13T19:45:04;63.4;52.2;
13030;PMS7003;6582;54.644;9.760;2023-07-13T19:50:01;63.6;52.5;
13030;PMS7003;6582;54.644;9.760;2023-07-13T19:55:04;63.9;52.9;
13030;PMS7003;6582;54.644;9.760;2023-07-13T20:00:02;64.9;53.8;
13030;PMS7003;6582;54.644;9.760;2023-07-13T20:05:02;64.7;53.6;
13030;PMS7003;6582;54.644;9.760;2023-07-13T20:15:01;64.7;53.4;
13030;PMS7003;6582;54.644;9.760;2023-07-13T20:20:16;64.6;53.3;
13030;PMS7003;6582;54.644;9.760;2023-07-13T20:25:06;64.1;52.8;
13030;PMS7003;6582;54.644;9.760;2023-07-13T20:30:01;64.5;53.1;
13030;PMS7003;6582;54.644;9.760;2023-07-13T20:35:02;64.7;53.4;
13030;PMS7003;6582;54.644;9.760;2023-07-13T20:40:01;64.8;53.5;
13030;PMS7003;6582;54.644;9.760;2023-07-13T20:45:01;64.6;53.4;
13030;PMS7003;6582;54.644;9.760;2023-07-13T21:10:04;58.6;49.0;
13030;PMS7003;6582;54.644;9.760;2023-07-13T21:15:01;58.8;49.0;
13030;PMS7003;6582;54.644;9.760;2023-07-13T21:20:01;58.9;48.9;
13030;PMS7003;6582;54.644;9.760;2023-07-13T21:25:04;59.0;48.9;
13030;PMS7003;6582;54.644;9.760;2023-07-13T21:30:01;59.2;49.1;
13030;PMS7003;6582;54.644;9.760;2023-07-13T21:35:01;59.8;49.7;
13030;PMS7003;6582;54.644;9.760;2023-07-13T21:40:01;60.6;50.4;
13030;PMS7003;6582;54.644;9.760;2023-07-13T21:45:01;60.5;50.5;
13030;PMS7003;6582;54.644;9.760;2023-07-13T21:50:07;61.1;51.0;
13030;PMS7003;6582;54.644;9.760;2023-07-13T21:55:01;62.0;51.8;
13030;PMS7003;6582;54.644;9.760;2023-07-13T22:00:01;61.6;51.5;
13030;PMS7003;6582;54.644;9.760;2023-07-13T22:10:12;62.9;52.4;
13030;PMS7003;6582;54.644;9.760;2023-07-13T22:15:01;63.4;52.8;
13030;PMS7003;6582;54.644;9.760;2023-07-13T22:20:01;64.0;53.0;
13030;PMS7003;6582;54.644;9.760;2023-07-13T22:25:01;65.1;53.7;
13030;PMS7003;6582;54.644;9.760;2023-07-13T22:30:02;66.1;54.3;
13030;PMS7003;6582;54.644;9.760;2023-07-13T22:35:03;66.3;54.5;
13030;PMS7003;6582;54.644;9.760;2023-07-13T22:40:01;74.6;62.7;
13030;PMS7003;6582;54.644;9.760;2023-07-13T22:45:01;74.4;62.8;
13030;PMS7003;6582;54.644;9.760;2023-07-13T22:50:11;74.5;62.8;
13030;PMS7003;6582;54.644;9.760;2023-07-13T22:55:01;74.4;62.8;
13030;PMS7003;6582;54.644;9.760;2023-07-13T23:00:01;74.1;62.6;
13030;PMS7003;6582;54.644;9.760;2023-07-13T23:05:01;66.2;54.8;
13030;PMS7003;6582;54.644;9.760;2023-07-13T23:15:02;66.3;54.7;
13030;PMS7003;6582;54.644;9.760;2023-07-13T23:20:06;66.1;54.6;
13030;PMS7003;6582;54.644;9.760;2023-07-13T23:25:04;65.9;54.4;
13030;PMS7003;6582;54.644;9.760;2023-07-13T23:30:01;65.8;54.3;
13030;PMS7003;6582;54.644;9.760;2023-07-13T23:40:04;65.9;54.5;
13030;PMS7003;6582;54.644;9.760;2023-07-13T23:45:01;66.1;54.7;
13030;PMS7003;6582;54.644;9.760;2023-07-13T23:50:04;66.5;54.9;
13030;PMS7003;6582;54.644;9.760;2023-07-13T23:55:01;66.8;55.0;
